CheckWX is a tool to help pilots better visualize weather data.  It is not intended as a substitute for an official pre-flight weather briefing.

04:51:56 UTC

KTYS TAF
Mc Ghee Tyson Airport
Knoxville, Tennessee, USA
KTYS 222337Z 2300/2324 VRB04KT P6SM VCTS BKN040CB TEMPO 2300/2301 VRB10KT 4SM SHRA OVC025 FM230400 VRB03KT P6SM VCSH SCT080 FM231100 VRB04KT P6SM BKN025 PROB30 2311/2317 4SM TSRA OVC015CB FM231900 25007KT 6SM -SHRA BKN035 PROB30 2319/2323 4SM TSRA OVC025CB

Aug-23@
00:00 UTC

Aug-23 @ 00:00 UTC

Aug-23@
04:00 UTC

Aug-23 @ 04:00 UTC

KTYS 222337Z 2300/2324 VRB04KT P6SM VCTS BKN040CB

Expired

Wind
  • Variable at 4 KTS
Conditions
Area Thunderstorm
Cloud Levels
  • Broken at 4,000' AGL

Aug-23@
00:00 UTC

Aug-23 @ 00:00 UTC

Aug-23@
01:00 UTC

Aug-23 @ 01:00 UTC

TEMPO 2300/2301 VRB10KT 4SM SHRA OVC025

Expired

Wind
  • Variable at 10 KTS
Conditions
Rain
Cloud Levels
  • Overcast at 2,500' AGL

Aug-23@
04:00 UTC

Aug-23 @ 04:00 UTC

Aug-23@
11:00 UTC

Aug-23 @ 11:00 UTC

FM230400 VRB03KT P6SM VCSH SCT080

From

From Standard forecast or significant change

Wind
  • Variable at 3 KTS
Cloud Levels
  • Scattered at 8,000' AGL

Aug-23@
11:00 UTC

Aug-23 @ 11:00 UTC

Aug-23@
17:00 UTC

Aug-23 @ 17:00 UTC

PROB30 2311/2317 4SM TSRA OVC015CB

Probable - 30% Likelihood

Probable - 30% Likelihood during this time.

Conditions
Thunderstorm, Rain
Cloud Levels
  • Overcast at 1,500' AGL

Aug-23@
11:00 UTC

Aug-23 @ 11:00 UTC

Aug-23@
19:00 UTC

Aug-23 @ 19:00 UTC

FM231100 VRB04KT P6SM BKN025

From

From Standard forecast or significant change

Wind
  • Variable at 4 KTS
Cloud Levels
  • Broken at 2,500' AGL

Aug-23@
19:00 UTC

Aug-23 @ 19:00 UTC

Aug-23@
23:00 UTC

Aug-23 @ 23:00 UTC

PROB30 2319/2323 4SM TSRA OVC025CB

Probable - 30% Likelihood

Probable - 30% Likelihood during this time.

Conditions
Thunderstorm, Rain
Cloud Levels
  • Overcast at 2,500' AGL

Aug-23@
19:00 UTC

Aug-23 @ 19:00 UTC

Aug-24@
00:00 UTC

Aug-24 @ 00:00 UTC

FM231900 25007KT 6SM -SHRA BKN035

From

From Standard forecast or significant change

Wind
  • 250° at 7 KTS
Conditions
Light Rain
Cloud Levels
  • Broken at 3,500' AGL